Time;durP1;ratioP1;P1;durP2;ratioP2;P2;SDS_P1;SDS_P2;PMS_P1;PMS_P2;Temp;Humidity;BMP_temperature;BMP_pressure;BME280_temperature;BME280_humidity;BME280_pressure;Samples;Min_cycle;Max_cycle;Signal;HPM_P1;HPM_P2
2023/03/25 00:01:18;;;;;;;16.67;6.18;;;;;;;;;;5072765;28;20386;-71
2023/03/25 00:03:49;;;;;;;10.68;5.50;;;;;;;;;;5073051;28;20025;-71
2023/03/25 00:06:15;;;;;;;15.32;6.20;;;;;;;;;;5073665;28;20119;-73
2023/03/25 00:08:41;;;;;;;13.95;6.38;;;;;;;;;;5073495;28;20527;-72
2023/03/25 00:11:07;;;;;;;18.48;6.28;;;;;;;;;;5073655;28;20562;-72
2023/03/25 00:13:34;;;;;;;19.85;6.57;;;;;;;;;;5072493;28;20108;-71
2023/03/25 00:16:01;;;;;;;16.17;6.88;;;;;;;;;;5073625;28;20119;-73
2023/03/25 00:18:28;;;;;;;18.42;6.80;;;;;;;;;;5072654;28;20020;-73
2023/03/25 00:20:55;;;;;;;12.07;6.25;;;;;;;;;;5072501;28;20474;-72
2023/03/25 00:23:21;;;;;;;18.45;7.03;;;;;;;;;;5072135;28;20035;-74
2023/03/25 00:25:48;;;;;;;17.20;6.72;;;;;;;;;;5072067;28;20521;-73
2023/03/25 00:28:14;;;;;;;17.42;7.03;;;;;;;;;;5072268;28;20024;-72
2023/03/25 00:30:41;;;;;;;18.75;7.20;;;;;;;;;;5072365;28;20024;-73
2023/03/25 00:33:09;;;;;;;14.95;6.85;;;;;;;;;;5072025;28;20044;-74
2023/03/25 00:35:37;;;;;;;17.58;6.65;;;;;;;;;;5072373;28;20013;-73
2023/03/25 00:38:03;;;;;;;19.58;6.53;;;;;;;;;;5070875;28;20383;-73
2023/03/25 00:40:33;;;;;;;19.08;6.60;;;;;;;;;;5071734;28;20032;-74
2023/03/25 00:43:00;;;;;;;18.70;6.75;;;;;;;;;;5071933;28;20370;-74
2023/03/25 00:45:26;;;;;;;19.25;7.78;;;;;;;;;;5072016;28;20024;-73
2023/03/25 00:47:52;;;;;;;18.38;7.10;;;;;;;;;;5072239;28;20071;-74
2023/03/25 00:50:20;;;;;;;21.05;7.20;;;;;;;;;;5071884;28;20051;-73
2023/03/25 00:52:46;;;;;;;15.23;7.13;;;;;;;;;;5071036;28;20111;-73
2023/03/25 00:55:12;;;;;;;19.35;7.28;;;;;;;;;;5071751;28;20104;-73
2023/03/25 00:57:38;;;;;;;11.45;6.72;;;;;;;;;;5071485;28;20033;-73
2023/03/25 01:00:07;;;;;;;18.40;6.88;;;;;;;;;;5071701;28;20489;-73
2023/03/25 01:02:33;;;;;;;15.57;7.72;;;;;;;;;;5066387;28;20028;-73
2023/03/25 01:04:59;;;;;;;15.80;7.35;;;;;;;;;;5070611;28;20032;-73
2023/03/25 01:07:28;;;;;;;19.05;7.72;;;;;;;;;;5071460;28;20389;-73
2023/03/25 01:09:54;;;;;;;23.52;7.88;;;;;;;;;;5071636;28;20496;-73
2023/03/25 01:12:20;;;;;;;16.02;7.80;;;;;;;;;;5071208;28;20025;-72
2023/03/25 01:14:46;;;;;;;15.35;7.78;;;;;;;;;;5071513;28;20425;-73
2023/03/25 01:17:12;;;;;;;16.70;6.93;;;;;;;;;;5071350;28;20074;-73
2023/03/25 01:19:38;;;;;;;19.63;7.43;;;;;;;;;;5070873;28;20021;-73
2023/03/25 01:22:05;;;;;;;20.95;8.13;;;;;;;;;;5071338;28;20033;-74
2023/03/25 01:24:31;;;;;;;18.92;7.68;;;;;;;;;;5053587;28;20417;-72
2023/03/25 01:26:57;;;;;;;19.02;7.65;;;;;;;;;;5071276;28;20223;-73
2023/03/25 01:29:23;;;;;;;19.58;7.78;;;;;;;;;;5071699;28;20472;-72
2023/03/25 01:31:50;;;;;;;18.73;7.30;;;;;;;;;;5072539;28;20107;-73
2023/03/25 01:34:16;;;;;;;15.85;7.38;;;;;;;;;;5072884;28;20020;-73
2023/03/25 01:36:45;;;;;;;21.60;8.15;;;;;;;;;;5073379;28;20025;-72
2023/03/25 01:39:11;;;;;;;18.10;7.00;;;;;;;;;;5074218;28;20028;-73
2023/03/25 01:41:38;;;;;;;21.38;7.00;;;;;;;;;;5071273;28;20017;-73
2023/03/25 01:44:30;;;;;;;18.13;6.75;;;;;;;;;;5070558;28;20036;-73
2023/03/25 01:46:58;;;;;;;19.48;6.97;;;;;;;;;;5070695;28;20032;-73
2023/03/25 01:49:28;;;;;;;19.45;6.25;;;;;;;;;;5070456;28;20078;-72
2023/03/25 01:51:57;;;;;;;15.85;6.90;;;;;;;;;;5070533;28;20056;-72
2023/03/25 01:54:23;;;;;;;17.77;6.57;;;;;;;;;;5070785;28;20386;-73
2023/03/25 01:56:50;;;;;;;20.10;6.40;;;;;;;;;;5070632;28;20474;-72
2023/03/25 01:59:18;;;;;;;19.77;5.82;;;;;;;;;;5070512;28;20478;-72
2023/03/25 02:01:45;;;;;;;20.63;5.70;;;;;;;;;;5070791;28;20078;-72
2023/03/25 02:04:12;;;;;;;19.63;5.70;;;;;;;;;;5070861;28;20099;-71
2023/03/25 02:06:45;;;;;;;16.52;5.65;;;;;;;;;;5071325;28;20024;-72
2023/03/25 02:09:14;;;;;;;18.63;6.53;;;;;;;;;;5070892;28;20029;-74
2023/03/25 02:11:40;;;;;;;19.77;6.18;;;;;;;;;;5069841;28;20082;-72
2023/03/25 02:14:08;;;;;;;17.27;6.18;;;;;;;;;;5053903;28;20020;-72
2023/03/25 02:16:54;;;;;;;16.45;6.50;;;;;;;;;;5071841;28;20028;-72
2023/03/25 02:19:21;;;;;;;15.40;5.97;;;;;;;;;;5070817;28;20051;-72
2023/03/25 02:21:53;;;;;;;26.00;6.30;;;;;;;;;;5070777;28;20020;-72
2023/03/25 02:24:34;;;;;;;14.52;5.90;;;;;;;;;;5070890;28;20028;-72
2023/03/25 02:27:13;;;;;;;13.80;5.28;;;;;;;;;;5071050;28;20375;-71
2023/03/25 02:29:52;;;;;;;20.90;5.85;;;;;;;;;;5052902;28;20587;-72
2023/03/25 02:32:18;;;;;;;14.32;5.60;;;;;;;;;;5070544;28;20108;-72
2023/03/25 02:35:03;;;;;;;15.68;6.07;;;;;;;;;;5061362;28;20109;-73
2023/03/25 02:37:29;;;;;;;;;;;;;;;;;;5050770;28;20269;-74
2023/03/25 02:40:14;;;;;;;19.38;5.80;;;;;;;;;;5050568;28;19904;-74
2023/03/25 02:42:40;;;;;;;;;;;;;;;;;;5032621;28;20371;-74
2023/03/25 02:45:18;;;;;;;17.23;6.22;;;;;;;;;;5050337;28;19911;-73
2023/03/25 02:47:46;;;;;;;21.70;6.00;;;;;;;;;;5049743;28;20036;-74
2023/03/25 02:50:18;;;;;;;19.02;6.13;;;;;;;;;;5050279;28;20383;-73
2023/03/25 02:52:48;;;;;;;17.17;5.85;;;;;;;;;;5050001;28;20029;-73
2023/03/25 02:55:16;;;;;;;19.23;5.53;;;;;;;;;;5050328;28;20057;-73
2023/03/25 02:57:44;;;;;;;17.27;5.88;;;;;;;;;;5050173;28;20033;-73
2023/03/25 03:00:14;;;;;;;13.98;5.85;;;;;;;;;;5049916;28;20021;-73
2023/03/25 03:02:44;;;;;;;20.70;6.03;;;;;;;;;;5052925;28;20032;-72
2023/03/25 03:05:24;;;;;;;17.10;6.30;;;;;;;;;;5053907;28;20029;-73
2023/03/25 03:07:53;;;;;;;20.60;6.30;;;;;;;;;;5036109;28;20035;-72
2023/03/25 03:10:26;;;;;;;14.85;5.90;;;;;;;;;;5036681;28;20390;-72
2023/03/25 03:12:57;;;;;;;16.27;5.05;;;;;;;;;;5053546;28;20364;-72
2023/03/25 03:15:46;;;;;;;15.27;5.72;;;;;;;;;;5067205;28;20032;-72
2023/03/25 03:18:33;;;;;;;15.77;5.82;;;;;;;;;;5073316;28;20453;-73
2023/03/25 03:21:06;;;;;;;15.68;5.05;;;;;;;;;;5074525;28;20020;-74
2023/03/25 03:24:01;;;;;;;14.55;5.63;;;;;;;;;;5074892;28;20035;-72
2023/03/25 03:26:38;;;;;;;18.08;5.40;;;;;;;;;;5067218;28;20154;-72
2023/03/25 03:29:11;;;;;;;13.65;4.88;;;;;;;;;;5091171;28;20028;-71
2023/03/25 03:31:38;;;;;;;14.77;4.88;;;;;;;;;;5078875;28;20029;-78
2023/03/25 03:34:09;;;;;;;17.50;4.80;;;;;;;;;;5073144;28;20017;-72
2023/03/25 03:36:38;;;;;;;22.15;5.28;;;;;;;;;;5073552;28;20025;-73
2023/03/25 03:39:08;;;;;;;15.45;4.90;;;;;;;;;;5073540;28;20032;-74
2023/03/25 03:41:35;;;;;;;17.58;5.20;;;;;;;;;;5074011;28;20237;-74
2023/03/25 03:44:04;;;;;;;16.52;5.22;;;;;;;;;;5056502;28;20115;-73
2023/03/25 03:46:40;;;;;;;19.10;5.75;;;;;;;;;;5074307;28;20367;-74
2023/03/25 03:49:09;;;;;;;19.65;5.90;;;;;;;;;;5074383;28;20045;-74
2023/03/25 03:51:36;;;;;;;11.35;4.30;;;;;;;;;;5074316;28;20025;-73
2023/03/25 03:54:08;;;;;;;10.77;4.55;;;;;;;;;;5074158;28;20081;-72
2023/03/25 03:56:37;;;;;;;14.88;4.45;;;;;;;;;;5073683;28;20069;-72
2023/03/25 03:59:12;;;;;;;15.68;4.80;;;;;;;;;;5074145;28;20021;-72
2023/03/25 04:01:44;;;;;;;20.17;5.22;;;;;;;;;;5073949;28;20104;-72
2023/03/25 04:04:12;;;;;;;14.13;4.80;;;;;;;;;;5055875;28;20111;-72
2023/03/25 04:06:45;;;;;;;13.65;4.63;;;;;;;;;;5073664;28;20074;-73
2023/03/25 04:09:44;;;;;;;18.10;4.50;;;;;;;;;;5073786;28;20052;-73
2023/03/25 04:12:09;;;;;;;17.55;5.43;;;;;;;;;;5018266;28;20098;-73
2023/03/25 04:14:39;;;;;;;13.18;4.65;;;;;;;;;;5074694;28;20024;-72
2023/03/25 04:17:05;;;;;;;11.43;4.38;;;;;;;;;;5057766;28;20024;-72
2023/03/25 04:19:32;;;;;;;15.32;4.72;;;;;;;;;;5057574;28;20084;-77
2023/03/25 04:22:00;;;;;;;16.58;4.88;;;;;;;;;;5069508;28;20025;-75
2023/03/25 04:24:30;;;;;;;22.15;5.05;;;;;;;;;;5070913;28;20051;-76
2023/03/25 04:26:56;;;;;;;15.55;4.18;;;;;;;;;;5069066;28;20028;-77
2023/03/25 04:29:24;;;;;;;13.15;4.32;;;;;;;;;;5068651;28;20649;-77
2023/03/25 04:31:53;;;;;;;11.70;4.25;;;;;;;;;;5061396;28;20021;-78
2023/03/25 04:34:19;;;;;;;16.58;4.65;;;;;;;;;;5043979;28;20021;-74
2023/03/25 04:36:45;;;;;;;13.52;4.18;;;;;;;;;;5067361;28;20021;-75
2023/03/25 04:39:11;;;;;;;17.70;4.45;;;;;;;;;;5063903;28;20031;-73
2023/03/25 04:41:38;;;;;;;16.80;4.88;;;;;;;;;;5062601;28;20024;-75
2023/03/25 04:44:07;;;;;;;13.95;4.65;;;;;;;;;;5061653;28;20108;-75
2023/03/25 04:46:35;;;;;;;11.25;3.97;;;;;;;;;;5063420;28;20028;-75
2023/03/25 04:49:02;;;;;;;13.43;4.47;;;;;;;;;;5062587;28;20031;-76
2023/03/25 04:51:29;;;;;;;16.95;4.03;;;;;;;;;;5062856;28;20079;-76
2023/03/25 04:53:55;;;;;;;10.65;3.42;;;;;;;;;;5059960;28;20037;-73
2023/03/25 04:56:22;;;;;;;10.70;3.60;;;;;;;;;;5052623;28;20083;-72
2023/03/25 04:58:48;;;;;;;12.95;3.78;;;;;;;;;;5052819;28;20045;-72
2023/03/25 05:01:29;;;;;;;12.25;4.35;;;;;;;;;;5052965;28;20037;-73
2023/03/25 05:04:05;;;;;;;13.82;4.45;;;;;;;;;;5053687;28;20095;-72
2023/03/25 05:06:32;;;;;;;14.70;4.38;;;;;;;;;;5053272;28;20025;-73
2023/03/25 05:09:00;;;;;;;15.57;4.85;;;;;;;;;;5052425;28;20040;-72
2023/03/25 05:11:26;;;;;;;12.38;4.60;;;;;;;;;;5052556;28;20036;-72
2023/03/25 05:13:52;;;;;;;12.45;4.90;;;;;;;;;;5052276;28;20025;-72
2023/03/25 05:16:18;;;;;;;16.20;5.07;;;;;;;;;;5052466;28;20379;-71
2023/03/25 05:18:44;;;;;;;13.68;5.50;;;;;;;;;;5052554;28;20099;-71
2023/03/25 05:21:11;;;;;;;11.00;5.00;;;;;;;;;;5052533;28;20542;-71
2023/03/25 05:23:37;;;;;;;11.23;4.70;;;;;;;;;;5034265;28;20040;-73
2023/03/25 05:26:03;;;;;;;12.63;5.70;;;;;;;;;;5036213;28;20502;-74
2023/03/25 05:28:29;;;;;;;15.98;5.05;;;;;;;;;;5052293;28;20029;-72
2023/03/25 05:30:56;;;;;;;9.82;4.20;;;;;;;;;;5052117;28;20056;-72
2023/03/25 05:33:22;;;;;;;9.80;4.57;;;;;;;;;;5051734;28;20446;-72
2023/03/25 05:35:49;;;;;;;16.50;4.55;;;;;;;;;;5052105;28;20024;-73
2023/03/25 05:38:17;;;;;;;13.48;4.57;;;;;;;;;;5052085;28;20023;-72
2023/03/25 05:40:44;;;;;;;14.27;4.90;;;;;;;;;;5051995;28;20017;-72
2023/03/25 05:43:10;;;;;;;15.10;4.22;;;;;;;;;;5051815;28;20072;-72
2023/03/25 05:45:37;;;;;;;15.13;4.53;;;;;;;;;;5051967;28;20108;-71
2023/03/25 05:48:03;;;;;;;16.65;4.75;;;;;;;;;;5051741;28;20028;-72
2023/03/25 05:50:30;;;;;;;15.20;4.75;;;;;;;;;;5051781;28;20025;-72
2023/03/25 05:52:58;;;;;;;17.20;4.93;;;;;;;;;;5051528;28;20108;-72
2023/03/25 05:55:24;;;;;;;15.30;5.15;;;;;;;;;;5051813;28;20017;-72
2023/03/25 05:57:50;;;;;;;14.25;4.55;;;;;;;;;;5051615;28;20033;-73
2023/03/25 06:00:20;;;;;;;13.63;5.18;;;;;;;;;;5034180;28;20027;-72
2023/03/25 06:02:47;;;;;;;21.83;5.32;;;;;;;;;;5051891;28;20025;-75
2023/03/25 06:05:14;;;;;;;21.17;4.20;;;;;;;;;;5052082;28;20025;-72
2023/03/25 06:07:41;;;;;;;14.27;4.90;;;;;;;;;;5051597;28;20060;-74
2023/03/25 06:10:08;;;;;;;17.83;4.38;;;;;;;;;;5051810;28;20017;-73
2023/03/25 06:12:37;;;;;;;17.85;4.32;;;;;;;;;;5033804;28;20036;-74
2023/03/25 06:15:04;;;;;;;23.35;4.25;;;;;;;;;;5051535;28;20036;-74
2023/03/25 06:17:32;;;;;;;15.73;4.40;;;;;;;;;;5033605;28;20021;-74
2023/03/25 06:19:59;;;;;;;14.52;4.53;;;;;;;;;;5052177;28;20021;-73
2023/03/25 06:22:26;;;;;;;17.17;4.78;;;;;;;;;;5051447;28;20032;-74
2023/03/25 06:24:52;;;;;;;13.73;4.80;;;;;;;;;;5051870;28;20040;-74
2023/03/25 06:27:18;;;;;;;18.00;4.65;;;;;;;;;;5052075;28;20489;-75
2023/03/25 06:29:45;;;;;;;14.00;4.80;;;;;;;;;;5057601;28;20033;-74
2023/03/25 06:32:12;;;;;;;17.98;5.25;;;;;;;;;;5062173;28;20413;-74
2023/03/25 06:34:41;;;;;;;17.13;4.55;;;;;;;;;;5068200;28;20382;-74
2023/03/25 06:37:07;;;;;;;11.88;4.20;;;;;;;;;;5068470;28;20508;-71
2023/03/25 06:39:36;;;;;;;20.75;4.57;;;;;;;;;;5066201;28;20024;-72
2023/03/25 06:42:03;;;;;;;19.02;5.18;;;;;;;;;;5063447;28;20244;-71
2023/03/25 06:44:29;;;;;;;19.05;4.90;;;;;;;;;;5063947;28;20032;-72
2023/03/25 06:46:55;;;;;;;18.35;4.90;;;;;;;;;;5057466;28;20059;-72
2023/03/25 06:49:21;;;;;;;16.75;4.55;;;;;;;;;;5063393;28;20389;-72
2023/03/25 06:51:47;;;;;;;23.63;5.40;;;;;;;;;;5068785;28;20028;-72
2023/03/25 06:54:14;;;;;;;17.95;5.63;;;;;;;;;;5069000;28;20028;-71
2023/03/25 06:56:40;;;;;;;25.15;5.07;;;;;;;;;;5064122;28;20123;-71
2023/03/25 06:59:06;;;;;;;20.60;5.25;;;;;;;;;;5063617;28;20079;-74
2023/03/25 07:01:32;;;;;;;20.02;4.97;;;;;;;;;;5065228;28;20103;-71
2023/03/25 07:03:58;;;;;;;27.20;5.88;;;;;;;;;;5063095;28;20111;-72
2023/03/25 07:06:24;;;;;;;18.63;4.90;;;;;;;;;;5064341;28;20065;-72
2023/03/25 07:08:50;;;;;;;20.92;5.38;;;;;;;;;;5077485;28;20522;-74
2023/03/25 07:11:19;;;;;;;17.05;4.07;;;;;;;;;;5070384;28;20021;-73
2023/03/25 07:13:45;;;;;;;15.48;4.28;;;;;;;;;;5089116;28;20084;-75
2023/03/25 07:16:11;;;;;;;20.35;5.25;;;;;;;;;;5086189;28;20025;-75
2023/03/25 07:18:37;;;;;;;17.88;4.95;;;;;;;;;;5070223;28;20036;-79
2023/03/25 07:21:03;;;;;;;20.15;5.70;;;;;;;;;;5041455;28;20025;-74
2023/03/25 07:23:30;;;;;;;25.92;6.15;;;;;;;;;;5058478;28;20056;-73
2023/03/25 07:25:56;;;;;;;18.67;5.07;;;;;;;;;;5057608;28;20028;-76
2023/03/25 07:28:23;;;;;;;16.02;4.63;;;;;;;;;;5057598;28;20032;-74
2023/03/25 07:30:49;;;;;;;20.23;4.63;;;;;;;;;;5055606;28;20025;-74
2023/03/25 07:33:15;;;;;;;17.13;4.90;;;;;;;;;;5054863;28;20037;-72
2023/03/25 07:35:41;;;;;;;22.83;5.00;;;;;;;;;;5055026;28;20433;-76
2023/03/25 07:38:08;;;;;;;21.38;5.15;;;;;;;;;;5055983;28;20393;-77
2023/03/25 07:40:34;;;;;;;18.40;4.43;;;;;;;;;;5057553;28;20021;-76
2023/03/25 07:43:00;;;;;;;14.98;4.32;;;;;;;;;;5055006;28;20367;-75
2023/03/25 07:45:26;;;;;;;25.90;5.22;;;;;;;;;;5053987;28;20021;-74
2023/03/25 07:47:52;;;;;;;22.27;4.82;;;;;;;;;;5053662;28;20386;-74
2023/03/25 07:50:19;;;;;;;20.83;4.60;;;;;;;;;;5054481;28;20093;-74
2023/03/25 07:52:45;;;;;;;21.73;4.55;;;;;;;;;;5054066;28;20524;-76
2023/03/25 07:55:11;;;;;;;19.08;4.68;;;;;;;;;;5054335;28;20056;-77
2023/03/25 07:57:37;;;;;;;16.77;4.43;;;;;;;;;;5054527;28;20029;-74
2023/03/25 08:00:06;;;;;;;28.83;4.25;;;;;;;;;;5054273;28;20463;-75
2023/03/25 08:02:32;;;;;;;21.40;4.28;;;;;;;;;;5054083;28;20028;-73
2023/03/25 08:04:58;;;;;;;21.50;4.68;;;;;;;;;;5054138;28;20343;-75
2023/03/25 08:07:27;;;;;;;19.00;3.88;;;;;;;;;;5054508;28;20053;-76
2023/03/25 08:09:53;;;;;;;17.40;4.10;;;;;;;;;;5054283;28;20104;-76
2023/03/25 08:12:19;;;;;;;16.70;3.95;;;;;;;;;;5054551;28;20096;-74
2023/03/25 08:14:45;;;;;;;23.35;3.90;;;;;;;;;;5054226;28;20040;-73
2023/03/25 08:17:11;;;;;;;19.27;4.43;;;;;;;;;;5054309;28;20107;-75
2023/03/25 08:19:37;;;;;;;17.45;4.30;;;;;;;;;;5053977;28;20013;-76
2023/03/25 08:22:03;;;;;;;15.82;3.55;;;;;;;;;;5053781;28;20052;-75
2023/03/25 08:24:31;;;;;;;16.80;3.95;;;;;;;;;;5054215;28;20025;-74
2023/03/25 08:26:59;;;;;;;14.32;3.97;;;;;;;;;;5059393;28;20040;-72
2023/03/25 08:29:26;;;;;;;20.98;3.85;;;;;;;;;;5074424;28;20016;-72
2023/03/25 08:31:52;;;;;;;22.70;3.67;;;;;;;;;;5074530;28;20048;-72
2023/03/25 08:34:18;;;;;;;21.85;3.92;;;;;;;;;;5075170;28;20044;-73
2023/03/25 08:36:44;;;;;;;18.27;4.15;;;;;;;;;;5074192;28;20020;-73
2023/03/25 08:39:11;;;;;;;17.20;3.75;;;;;;;;;;5073307;28;20081;-71
2023/03/25 08:41:37;;;;;;;17.98;3.78;;;;;;;;;;5073505;28;20020;-71
2023/03/25 08:44:04;;;;;;;17.35;3.75;;;;;;;;;;5072669;28;20108;-72
2023/03/25 08:46:30;;;;;;;22.20;4.32;;;;;;;;;;5072971;28;20059;-71
2023/03/25 08:48:56;;;;;;;21.58;4.38;;;;;;;;;;5072890;28;20028;-72
2023/03/25 08:51:22;;;;;;;16.95;3.72;;;;;;;;;;5073330;28;20478;-73
2023/03/25 08:53:48;;;;;;;16.45;3.90;;;;;;;;;;5073071;28;20028;-75
2023/03/25 08:56:14;;;;;;;20.80;4.97;;;;;;;;;;5072856;28;20444;-71
2023/03/25 08:58:40;;;;;;;15.02;4.35;;;;;;;;;;5072331;28;20094;-72
2023/03/25 09:01:06;;;;;;;16.92;3.22;;;;;;;;;;5073037;28;20020;-70
2023/03/25 09:03:32;;;;;;;26.38;4.15;;;;;;;;;;5072789;28;20025;-73
2023/03/25 09:06:02;;;;;;;23.38;4.35;;;;;;;;;;5073379;28;20024;-71
2023/03/25 09:08:28;;;;;;;11.32;3.40;;;;;;;;;;5073228;28;20029;-72
2023/03/25 09:10:55;;;;;;;13.65;2.60;;;;;;;;;;5077678;28;20034;-72
2023/03/25 09:13:21;;;;;;;12.27;2.33;;;;;;;;;;5059806;28;20123;-71
2023/03/25 09:15:47;;;;;;;10.20;2.42;;;;;;;;;;5075440;28;20017;-73
2023/03/25 09:18:13;;;;;;;8.02;2.45;;;;;;;;;;5056174;28;20028;-74
2023/03/25 09:20:40;;;;;;;16.30;2.67;;;;;;;;;;5075094;28;20405;-73
2023/03/25 09:23:06;;;;;;;8.38;2.03;;;;;;;;;;5073791;28;20027;-74
2023/03/25 09:25:32;;;;;;;9.13;2.40;;;;;;;;;;5074035;28;20024;-72
2023/03/25 09:27:58;;;;;;;6.93;1.90;;;;;;;;;;5074311;28;20078;-77
2023/03/25 09:30:24;;;;;;;8.73;2.17;;;;;;;;;;5036215;28;20569;-72
2023/03/25 09:32:50;;;;;;;8.40;2.08;;;;;;;;;;5054717;28;20029;-72
2023/03/25 09:35:16;;;;;;;11.38;2.17;;;;;;;;;;5052797;28;20096;-71
2023/03/25 09:37:43;;;;;;;11.07;2.53;;;;;;;;;;5052201;28;20021;-76
2023/03/25 09:40:10;;;;;;;11.68;2.40;;;;;;;;;;5053753;28;20648;-77
2023/03/25 09:42:39;;;;;;;8.73;2.15;;;;;;;;;;5054150;28;20037;-74
2023/03/25 09:45:24;;;;;;;10.70;2.35;;;;;;;;;;5052767;28;20494;-74
2023/03/25 09:48:00;;;;;;;8.35;2.00;;;;;;;;;;5052953;28;20024;-77
2023/03/25 09:50:28;;;;;;;13.70;3.67;;;;;;;;;;5054222;28;20036;-77
2023/03/25 09:53:06;;;;;;;7.20;2.00;;;;;;;;;;5054942;28;20413;-75
2023/03/25 09:55:34;;;;;;;11.13;2.58;;;;;;;;;;5034686;28;20048;-77
2023/03/25 09:58:04;;;;;;;9.32;2.28;;;;;;;;;;5052937;28;20036;-72
2023/03/25 10:00:32;;;;;;;11.65;2.22;;;;;;;;;;5052299;28;20537;-72
2023/03/25 10:03:07;;;;;;;12.85;2.55;;;;;;;;;;5052756;28;20104;-73
2023/03/25 10:05:32;;;;;;;;;;;;;;;;;;5052344;28;20063;-72
2023/03/25 10:08:04;;;;;;;12.70;2.17;;;;;;;;;;5051786;28;19948;-72
2023/03/25 10:10:50;;;;;;;11.18;2.10;;;;;;;;;;5051528;28;20029;-72
2023/03/25 10:13:35;;;;;;;7.40;1.85;;;;;;;;;;5051452;28;20086;-72
2023/03/25 10:16:07;;;;;;;12.10;3.17;;;;;;;;;;5052252;28;20035;-71
2023/03/25 10:18:39;;;;;;;10.20;1.92;;;;;;;;;;5054391;28;20036;-70
2023/03/25 10:21:12;;;;;;;9.88;2.40;;;;;;;;;;5054329;28;20025;-73
2023/03/25 10:23:45;;;;;;;4.18;1.40;;;;;;;;;;5053888;28;20025;-72
2023/03/25 10:26:27;;;;;;;6.07;1.75;;;;;;;;;;5053371;28;20025;-72
2023/03/25 10:28:58;;;;;;;6.28;1.70;;;;;;;;;;5053130;28;20093;-72
2023/03/25 10:31:24;;;;;;;9.75;2.22;;;;;;;;;;5051644;28;20028;-72
2023/03/25 10:33:55;;;;;;;10.43;2.00;;;;;;;;;;5054192;28;20051;-76
2023/03/25 10:36:26;;;;;;;11.50;2.67;;;;;;;;;;5039080;28;20025;-76
2023/03/25 10:38:54;;;;;;;10.25;2.25;;;;;;;;;;5053779;28;20091;-75
2023/03/25 10:41:27;;;;;;;14.18;3.03;;;;;;;;;;5052225;28;20029;-72
2023/03/25 10:43:54;;;;;;;18.17;3.33;;;;;;;;;;5051208;28;20096;-73
2023/03/25 10:46:32;;;;;;;16.88;2.97;;;;;;;;;;5051195;28;20029;-73
2023/03/25 10:48:58;;;;;;;18.52;2.95;;;;;;;;;;5051489;28;20083;-73
2023/03/25 10:51:28;;;;;;;18.45;2.97;;;;;;;;;;5051355;28;20025;-75
2023/03/25 10:53:55;;;;;;;17.02;2.78;;;;;;;;;;5050834;28;20051;-73
2023/03/25 10:56:24;;;;;;;19.70;5.53;;;;;;;;;;5051134;28;20087;-74
2023/03/25 10:58:52;;;;;;;17.40;3.03;;;;;;;;;;5051357;28;20463;-73
2023/03/25 11:01:20;;;;;;;20.83;3.13;;;;;;;;;;5051399;28;20044;-73
2023/03/25 11:03:50;;;;;;;17.15;3.88;;;;;;;;;;5051208;28;20025;-72
2023/03/25 11:06:25;;;;;;;15.25;2.90;;;;;;;;;;5054624;28;20025;-71
2023/03/25 11:08:58;;;;;;;23.60;3.88;;;;;;;;;;5052024;28;20285;-73
2023/03/25 11:11:34;;;;;;;12.02;2.60;;;;;;;;;;5033705;28;20029;-73
2023/03/25 11:14:01;;;;;;;11.02;1.60;;;;;;;;;;5050701;28;20038;-75
2023/03/25 11:16:32;;;;;;;5.38;1.52;;;;;;;;;;5051143;28;20021;-71
2023/03/25 11:19:00;;;;;;;7.28;1.60;;;;;;;;;;5051576;28;20122;-72
2023/03/25 11:21:30;;;;;;;4.15;1.25;;;;;;;;;;5052699;28;20017;-72
2023/03/25 11:23:58;;;;;;;5.97;1.33;;;;;;;;;;5055746;28;20040;-72
2023/03/25 11:26:29;;;;;;;7.45;1.70;;;;;;;;;;5056035;28;20231;-73
2023/03/25 11:28:56;;;;;;;8.30;1.75;;;;;;;;;;5055429;28;20025;-73
2023/03/25 11:31:26;;;;;;;6.22;2.00;;;;;;;;;;5054904;28;20062;-74
2023/03/25 11:34:05;;;;;;;5.70;1.50;;;;;;;;;;5054590;28;20486;-71
2023/03/25 11:36:34;;;;;;;6.30;1.70;;;;;;;;;;5054819;28;20104;-70
2023/03/25 11:39:03;;;;;;;6.20;1.50;;;;;;;;;;5054813;28;20043;-71
2023/03/25 11:41:33;;;;;;;9.70;1.80;;;;;;;;;;5054773;28;20025;-72
2023/03/25 11:43:59;;;;;;;7.32;1.75;;;;;;;;;;5054547;28;20277;-71
2023/03/25 11:46:25;;;;;;;5.07;1.52;;;;;;;;;;5055057;28;20025;-72
2023/03/25 11:48:51;;;;;;;7.30;1.60;;;;;;;;;;5055265;28;20421;-79
2023/03/25 11:51:17;;;;;;;4.63;1.40;;;;;;;;;;5055054;28;20059;-72
2023/03/25 11:53:48;;;;;;;6.00;1.52;;;;;;;;;;5054438;28;20060;-73
2023/03/25 11:56:19;;;;;;;5.35;1.52;;;;;;;;;;5054395;28;20465;-76
2023/03/25 11:58:45;;;;;;;7.15;1.58;;;;;;;;;;5054187;28;20151;-72
2023/03/25 12:01:17;;;;;;;6.30;1.65;;;;;;;;;;5054005;28;20029;-72
2023/03/25 12:03:44;;;;;;;7.68;1.60;;;;;;;;;;5053782;28;20036;-71
2023/03/25 12:06:21;;;;;;;6.68;1.48;;;;;;;;;;5053684;28;20035;-72
2023/03/25 12:08:56;;;;;;;4.63;1.30;;;;;;;;;;5053683;28;20296;-72
2023/03/25 12:11:25;;;;;;;6.07;1.60;;;;;;;;;;5053501;28;20099;-73
2023/03/25 12:14:10;;;;;;;7.38;1.48;;;;;;;;;;5053224;28;20035;-72
2023/03/25 12:16:42;;;;;;;9.15;1.90;;;;;;;;;;5053724;28;20029;-72
2023/03/25 12:19:16;;;;;;;7.57;2.20;;;;;;;;;;5054133;28;20083;-73
2023/03/25 12:22:00;;;;;;;8.27;1.83;;;;;;;;;;5053535;28;20425;-72
2023/03/25 12:24:36;;;;;;;12.85;2.58;;;;;;;;;;5053947;28;20017;-75
2023/03/25 12:27:41;;;;;;;12.93;1.90;;;;;;;;;;5053757;28;20029;-75
2023/03/25 12:30:12;;;;;;;11.63;1.80;;;;;;;;;;4973208;28;20023;-73
2023/03/25 12:32:46;;;;;;;12.15;2.20;;;;;;;;;;4974044;28;20158;-74
2023/03/25 12:35:13;;;;;;;7.25;1.60;;;;;;;;;;5020634;28;20025;-74
2023/03/25 12:37:55;;;;;;;10.10;2.00;;;;;;;;;;5054955;28;20031;-73
2023/03/25 12:40:24;;;;;;;11.60;2.17;;;;;;;;;;5056349;28;20090;-74
2023/03/25 12:43:03;;;;;;;10.45;2.88;;;;;;;;;;5058547;28;20072;-72
2023/03/25 12:45:48;;;;;;;12.82;2.63;;;;;;;;;;5056047;28;20029;-73
2023/03/25 12:48:37;;;;;;;14.93;2.35;;;;;;;;;;5056085;28;20112;-73
2023/03/25 12:51:26;;;;;;;16.70;2.83;;;;;;;;;;5044853;28;20048;-74
2023/03/25 12:54:00;;;;;;;13.45;2.17;;;;;;;;;;5045861;28;20435;-74
2023/03/25 12:56:50;;;;;;;15.90;2.33;;;;;;;;;;5054456;28;20025;-74
2023/03/25 12:59:31;;;;;;;13.38;3.38;;;;;;;;;;5056192;28;20024;-75
2023/03/25 13:02:12;;;;;;;7.13;1.77;;;;;;;;;;5055167;28;20028;-74
2023/03/25 13:04:38;;;;;;;9.32;1.52;;;;;;;;;;5055533;28;20471;-75
2023/03/25 13:07:17;;;;;;;5.07;1.63;;;;;;;;;;5054653;28;20025;-74
2023/03/25 13:09:53;;;;;;;7.38;1.90;;;;;;;;;;5053498;28;20025;-74
2023/03/25 13:12:37;;;;;;;9.80;2.20;;;;;;;;;;5052411;28;20516;-74
2023/03/25 13:15:13;;;;;;;9.80;2.03;;;;;;;;;;5052926;28;20032;-75
2023/03/25 13:17:41;;;;;;;10.23;2.47;;;;;;;;;;5052673;28;20025;-76
2023/03/25 13:20:09;;;;;;;10.48;2.30;;;;;;;;;;5052554;28;20095;-75
2023/03/25 13:22:45;;;;;;;11.70;1.98;;;;;;;;;;5052737;28;20047;-75
2023/03/25 13:25:19;;;;;;;9.43;2.03;;;;;;;;;;5054594;28;20448;-76
2023/03/25 13:27:46;;;;;;;12.93;2.63;;;;;;;;;;5036802;28;20025;-77
2023/03/25 13:30:15;;;;;;;11.18;2.40;;;;;;;;;;5054624;28;20032;-76
2023/03/25 13:32:46;;;;;;;20.35;8.10;;;;;;;;;;5052997;28;20091;-74
2023/03/25 13:35:15;;;;;;;11.70;4.75;;;;;;;;;;5053521;28;20017;-75
2023/03/25 13:37:44;;;;;;;5.93;1.77;;;;;;;;;;5053298;28;20021;-76
2023/03/25 13:40:10;;;;;;;5.35;1.20;;;;;;;;;;5054125;28;20482;-75
2023/03/25 13:42:51;;;;;;;3.33;1.15;;;;;;;;;;5053467;28;20033;-75
2023/03/25 13:45:19;;;;;;;5.93;1.27;;;;;;;;;;5052194;28;20425;-73
2023/03/25 13:47:50;;;;;;;3.75;1.25;;;;;;;;;;5052101;28;20028;-72
2023/03/25 13:50:24;;;;;;;15.65;6.63;;;;;;;;;;5052859;28;20032;-73
2023/03/25 13:52:53;;;;;;;6.78;1.48;;;;;;;;;;5052426;28;20517;-76
2023/03/25 13:55:22;;;;;;;6.47;1.42;;;;;;;;;;5052397;28;20025;-74
2023/03/25 13:57:57;;;;;;;7.57;1.85;;;;;;;;;;5051940;28;20112;-75
2023/03/25 14:00:23;;;;;;;4.32;1.33;;;;;;;;;;5052236;28;20548;-76
2023/03/25 14:02:55;;;;;;;6.53;1.75;;;;;;;;;;5052586;28;20036;-75
2023/03/25 14:05:40;;;;;;;3.72;1.30;;;;;;;;;;5055257;28;20025;-75
2023/03/25 14:08:25;;;;;;;8.65;1.15;;;;;;;;;;5054194;28;20028;-75
2023/03/25 14:10:51;;;;;;;6.85;1.55;;;;;;;;;;5054466;28;20025;-75
2023/03/25 14:13:20;;;;;;;9.07;1.60;;;;;;;;;;5035320;28;20126;-74
2023/03/25 14:16:06;;;;;;;5.85;1.33;;;;;;;;;;5052531;28;20030;-74
2023/03/25 14:18:40;;;;;;;4.95;1.20;;;;;;;;;;5053209;28;20116;-73
2023/03/25 14:21:26;;;;;;;8.85;2.97;;;;;;;;;;5053275;28;20028;-75
2023/03/25 14:24:02;;;;;;;8.98;2.20;;;;;;;;;;5052268;28;20021;-75
2023/03/25 14:26:28;;;;;;;9.00;1.70;;;;;;;;;;5053020;28;20054;-75
2023/03/25 14:28:56;;;;;;;7.68;1.67;;;;;;;;;;5052741;28;20474;-78
2023/03/25 14:31:22;;;;;;;4.72;1.42;;;;;;;;;;5052761;28;20033;-73
2023/03/25 14:34:03;;;;;;;7.82;1.38;;;;;;;;;;5051904;28;20029;-75
2023/03/25 14:36:30;;;;;;;14.93;1.70;;;;;;;;;;5051548;28;20021;-73
2023/03/25 14:38:58;;;;;;;7.80;2.97;;;;;;;;;;5051625;28;20104;-71
2023/03/25 14:41:43;;;;;;;8.90;2.13;;;;;;;;;;5051870;28;20021;-72
2023/03/25 14:44:18;;;;;;;7.20;1.35;;;;;;;;;;5052539;28;20033;-76
2023/03/25 14:46:47;;;;;;;9.32;1.90;;;;;;;;;;5053010;28;20041;-72
2023/03/25 14:49:29;;;;;;;8.13;2.08;;;;;;;;;;5052729;28;20025;-77